Date,TemperatureHighF,TemperatureAvgF,TemperatureLowF,DewpointHighF,DewpointAvgF,DewpointLowF,HumidityHigh,HumidityAvg,HumidityLow,PressureMaxIn,PressureMinIn,WindSpeedMaxMPH,WindSpeedAvgMPH,GustSpeedMaxMPH,PrecipitationSumIn
2013-3-1,29.8,26.6,22.2,20.8,17.9,15.8,78,69,64,29.98,29.85,14,4,14,0.00
2013-3-2,28.5,24.3,19.5,17.6,15.3,12.6,78,68,62,29.96,29.91,11,2,11,0.00
2013-3-3,30.3,23.9,11.8,18.3,14.4,6.8,81,67,60,29.92,29.83,11,1,11,0.00
2013-3-4,30.3,24.5,10.3,17.8,14.7,5.6,82,66,57,29.98,29.91,10,0,10,0.00
2013-3-5,34.3,28.2,13.8,23.4,20.8,9.0,83,74,64,29.98,29.75,20,7,20,0.00
2013-3-6,37.9,34.5,22.2,28.7,26.7,18.1,87,73,68,30.05,29.78,15,4,15,0.00
2013-3-7,37.5,31.0,23.8,26.4,19.7,15.2,87,63,53,30.25,30.05,9,1,9,0.00
2013-3-8,39.0,32.5,16.6,25.7,22.1,11.5,81,66,58,30.33,30.23,7,0,7,0.00
2013-3-9,47.6,39.6,22.4,30.9,28.1,18.5,87,64,52,30.23,29.87,11,2,11,0.00
2013-3-10,51.2,47.0,42.7,39.9,37.6,36.1,83,70,63,29.74,29.62,9,1,9,0.00
2013-3-11,49.0,46.1,35.5,45.6,41.8,30.7,88,85,74,29.63,29.33,15,5,15,0.00
2013-3-12,38.4,35.9,31.2,30.8,26.5,24.4,86,69,60,29.66,29.46,14,5,15,0.00
2013-3-13,29.1,26.8,24.9,13.5,12.7,11.8,58,55,51,30.02,29.95,14,6,14,0.00
2013-3-14,36.1,31.3,19.2,20.9,18.5,12.1,76,59,50,30.08,29.88,14,2,14,0.00
2013-3-15,38.8,35.1,28.0,30.9,27.5,18.5,79,73,67,29.87,29.70,9,2,9,0.00
2013-3-16,32.1,28.0,22.2,24.4,21.3,17.8,84,76,68,29.88,29.67,12,2,12,0.00
2013-3-17,27.1,22.5,17.5,19.6,12.3,8.4,82,65,53,30.15,29.87,18,6,18,0.00
2013-3-18,32.8,31.2,30.5,27.8,25.7,21.2,88,80,65,29.64,29.40,14,2,14,0.00
2013-3-19,31.2,26.0,20.8,28.0,17.3,14.3,88,69,61,29.72,29.39,16,5,16,0.00
2013-3-20,31.0,24.2,15.4,17.3,12.7,7.8,75,61,53,29.77,29.70,18,4,18,0.00
2013-3-21,32.1,28.1,15.9,21.7,18.8,8.8,80,68,62,29.76,29.67,13,4,13,0.00
2013-3-22,37.3,32.3,22.9,23.2,20.9,14.9,75,63,56,29.86,29.76,14,2,14,0.00
2013-3-23,39.0,32.6,24.6,25.5,22.2,18.4,77,66,58,29.96,29.87,8,1,8,0.00
2013-3-24,37.5,31.3,20.4,26.9,22.1,16.3,86,69,57,29.91,29.59,23,9,23,0.00
2013-3-25,38.8,35.7,28.7,28.3,26.2,22.1,79,68,64,29.78,29.52,18,6,18,0.00
2013-3-26,44.0,36.8,28.9,31.8,27.8,23.2,81,70,59,29.95,29.78,13,2,13,0.00
2013-3-27,46.3,41.0,27.6,28.9,25.9,20.6,77,55,46,30.04,29.94,20,6,20,0.00
2013-3-28,49.4,42.5,29.6,27.9,25.2,20.7,73,51,42,30.10,30.03,12,2,12,0.00
2013-3-29,50.8,43.1,24.7,28.1,24.5,17.6,75,48,40,30.12,30.02,9,1,9,0.00
2013-3-30,52.3,46.2,24.6,29.8,25.4,18.7,80,45,34,30.05,29.74,14,4,14,0.00
2013-3-31,55.0,45.9,35.2,40.1,34.6,26.3,77,65,52,29.74,29.45,15,4,15,0.00